Lady Maria Luisa — 3ENE4 — position and weather

sailwx.info

Track history (hours):
 
Tides and Currents Weather Stations Pressure Air Temp Water Temp Dewpoint Dewpoint Depression Visibility Wind Speed Wind Dir Waves Ship Positions

Lady Maria Luisa

Last reported at 2015-May-25 17:33 UTC. Time now 2015-May-28 22:16 UTC.
Position S 24°21' W 045°25'.

Length 224 m; draft 13.3 m.

Type: Cargo ship. MMSI: 355777000.

Date/timePositionNaut miles runAvg speedWind from/ knotsBaromVisibWave heightAir tempDewpointWater temp
2015-May-25 17:33S 24°21' W 045°25'1211.6
2015-May-25 16:32S 24°19' W 045°38'1111.8
2015-May-25 15:33S 24°17' W 045°50'1211.8
2015-May-25 14:33S 24°14' W 046°03'1211.8
2015-May-25 13:33S 24°12' W 046°15'10 9.6
2015-May-25 12:33S 24°04' W 046°22'7 6.7
2015-May-25 11:34S 23°59' W 046°17'0 0.1
2015-May-25 10:32S 23°59' W 046°17'0 0.0
2015-May-25 09:29S 23°59' W 046°17'0 0.0
2015-May-25 08:29S 23°59' W 046°17'0 0.0
2015-May-25 07:32S 23°59' W 046°17'0 0.0
2015-May-25 06:32S 23°59' W 046°17'0 0.0
2015-May-25 05:29S 23°59' W 046°17'0 0.0
2015-May-25 04:32S 23°59' W 046°17'0 0.0
2015-May-25 03:32S 23°59' W 046°17'0 0.0
2015-May-25 02:32S 23°59' W 046°17'0 0.0
2015-May-25 01:32S 23°59' W 046°17'0 0.0
2015-May-25 00:29S 23°59' W 046°17'0 0.0
2015-May-24 23:32S 23°59' W 046°17'0 0.0
2015-May-24 22:29S 23°59' W 046°17'0 0.0
2015-May-24 21:32S 23°59' W 046°17'0 0.0
2015-May-24 20:26S 23°59' W 046°17'0 0.0
2015-May-24 19:32S 23°59' W 046°17'0 0.0
2015-May-24 18:32S 23°59' W 046°17'0 0.0
2015-May-24 17:32S 23°59' W 046°17'0 0.0
2015-May-24 16:32S 23°59' W 046°17'0 0.0
2015-May-24 15:32S 23°59' W 046°17'0 0.0
2015-May-24 14:32S 23°59' W 046°17'0 0.0
2015-May-24 13:32S 23°59' W 046°17'0 0.0
2015-May-24 12:32S 23°59' W 046°17'0 0.0
2015-May-24 11:29S 23°59' W 046°17'0 0.0
2015-May-24 10:32S 23°59' W 046°17'0 0.0
2015-May-24 09:32S 23°59' W 046°17'0 0.0
2015-May-24 08:26S 23°59' W 046°17'0 0.0
2015-May-24 07:32S 23°59' W 046°17'0 0.0
2015-May-24 06:32S 23°59' W 046°17'0 0.0
2015-May-24 05:32S 23°59' W 046°17'0 0.0
2015-May-24 04:32S 23°59' W 046°17'0 0.0
2015-May-24 03:32S 23°59' W 046°17'0 0.0
2015-May-24 02:20S 23°59' W 046°18'0 0.0
2015-May-24 01:32S 23°59' W 046°17'0 0.0
2015-May-24 00:32S 23°59' W 046°17'0 0.0
2015-May-23 23:32S 23°59' W 046°17'0 0.0
2015-May-23 22:32S 23°59' W 046°17'0 0.0
2015-May-23 21:29S 23°59' W 046°17'0 0.0
2015-May-23 20:32S 23°59' W 046°17'0 0.0
2015-May-23 19:32S 23°59' W 046°17'0 0.0
2015-May-23 18:32S 23°59' W 046°17'0 0.0
2015-May-23 17:32S 23°59' W 046°17'0 0.0
2015-May-23 16:32S 23°59' W 046°17'0 0.0
2015-May-23 15:32S 23°59' W 046°17'0 0.0
2015-May-23 14:29S 23°59' W 046°17'0 0.0
2015-May-23 13:26S 23°59' W 046°17'0 0.0
2015-May-23 12:32S 23°59' W 046°17'0 0.0
2015-May-23 11:32S 23°59' W 046°17'0 0.0
2015-May-23 10:32S 23°59' W 046°17'0 0.0
2015-May-23 09:32S 23°59' W 046°17'0 0.0
2015-May-23 08:29S 23°59' W 046°17'0 0.4
2015-May-23 07:33S 23°59' W 046°18'7 6.8
2015-May-23 06:33S 24°05' W 046°22'6 5.9
2015-May-23 05:33S 24°11' W 046°22'6 6.4
2015-May-23 04:33S 24°13' W 046°15'0 0.1
2015-May-23 02:21S 24°13' W 046°15'0 0.0
2015-May-23 01:27S 24°13' W 046°15'0 0.0
2015-May-23 00:24S 24°13' W 046°15'0 0.0
2015-May-22 23:27S 24°13' W 046°15'0 0.0
2015-May-22 22:33S 24°13' W 046°15'0 0.0
2015-May-22 21:27S 24°13' W 046°15'0 0.0
2015-May-22 20:33S 24°13' W 046°15'0 0.0
2015-May-22 19:30S 24°13' W 046°15'0 0.0
2015-May-22 18:33S 24°13' W 046°15'0 0.0
2015-May-22 17:27S 24°13' W 046°15'0 0.0
2015-May-22 16:33S 24°13' W 046°15'0 0.0
2015-May-22 15:30S 24°13' W 046°15'0 0.1
2015-May-22 14:30S 24°13' W 046°15'0 0.0
2015-May-22 13:30S 24°13' W 046°15'0 0.0
2015-May-22 12:30S 24°13' W 046°15'0 0.0
2015-May-22 11:33S 24°13' W 046°15'0 0.0
2015-May-22 10:33S 24°13' W 046°15'0 0.0
2015-May-22 09:33S 24°13' W 046°15'0 0.0
2015-May-22 08:27S 24°13' W 046°15'0 0.0
2015-May-22 07:33S 24°13' W 046°15'0 0.0
2015-May-22 06:33S 24°13' W 046°15'0 0.0
2015-May-22 05:06S 24°13' W 046°15'0 0.0
2015-May-22 04:21S 24°13' W 046°15'0 0.0
2015-May-22 03:30S 24°13' W 046°15'0 0.0
2015-May-22 02:24S 24°13' W 046°15'0 0.0
2015-May-22 01:27S 24°13' W 046°15'0 0.0
2015-May-21 23:06S 24°13' W 046°15'0 0.1
2015-May-21 22:33S 24°13' W 046°15'0 0.0
2015-May-21 21:24S 24°13' W 046°15'0 0.0
2015-May-21 20:30S 24°13' W 046°15'0 0.0
2015-May-21 19:33S 24°13' W 046°15'0 0.0
2015-May-21 18:24S 24°13' W 046°15'0 0.0
2015-May-21 17:30S 24°13' W 046°15'0 0.0
2015-May-21 16:30S 24°13' W 046°15'0 0.0
2015-May-21 15:33S 24°13' W 046°15'0 0.0
2015-May-21 14:30S 24°13' W 046°15'0 0.0
2015-May-21 13:06S 24°13' W 046°15'0 0.0
2015-May-21 12:17S 24°13' W 046°15'0 0.0
2015-May-21 11:33S 24°13' W 046°15'0 0.0
2015-May-21 10:32S 24°13' W 046°15'0 0.0
2015-May-21 09:29S 24°13' W 046°15'0 0.0
2015-May-21 08:32S 24°13' W 046°15'0 0.0
2015-May-21 07:32S 24°13' W 046°15'0 0.0
2015-May-21 06:29S 24°13' W 046°15'0 0.0
2015-May-21 05:18S 24°13' W 046°15'0 0.0
2015-May-21 04:29S 24°13' W 046°15'0 0.0
2015-May-21 03:29S 24°13' W 046°15'0 0.0
2015-May-21 02:29S 24°13' W 046°15'0 0.0
2015-May-21 01:29S 24°13' W 046°15'0 0.0
2015-May-21 00:32S 24°13' W 046°15'0 0.0
2015-May-20 23:26S 24°13' W 046°15'0 0.0
2015-May-20 22:32S 24°13' W 046°15'0 0.0
2015-May-20 21:29S 24°13' W 046°15'0 0.0
2015-May-20 20:23S 24°13' W 046°15'0 0.0
2015-May-20 19:23S 24°13' W 046°15'0 0.0
2015-May-20 18:20S 24°13' W 046°15'0 0.0
2015-May-20 17:29S 24°13' W 046°15'0 0.0
2015-May-20 16:32S 24°13' W 046°15'0 0.0
2015-May-20 15:29S 24°13' W 046°15'0 0.0
2015-May-20 14:29S 24°13' W 046°15'0 0.0
2015-May-20 13:29S 24°13' W 046°15'0 0.0
2015-May-20 12:32S 24°13' W 046°15'0 0.0
2015-May-20 11:29S 24°13' W 046°15'0 0.0
2015-May-20 10:32S 24°13' W 046°15'0 0.0
2015-May-20 09:29S 24°13' W 046°15'0 0.0
2015-May-20 08:32S 24°13' W 046°15'0 0.0
2015-May-20 07:29S 24°13' W 046°15'0 0.0
2015-May-20 06:32S 24°13' W 046°15'0 0.0
2015-May-20 05:32S 24°13' W 046°15'0 0.0
2015-May-20 04:32S 24°13' W 046°15'0 0.0
2015-May-20 03:32S 24°13' W 046°15'0 0.0
2015-May-20 02:17S 24°13' W 046°15'0 0.0
2015-May-20 01:29S 24°13' W 046°15'0 0.0
2015-May-20 00:29S 24°13' W 046°15'0 0.0
2015-May-19 23:32S 24°13' W 046°15'0 0.0
2015-May-19 22:32S 24°13' W 046°15'0 0.0
2015-May-19 21:32S 24°13' W 046°15'0 0.0
2015-May-19 20:32S 24°13' W 046°15'0 0.0
2015-May-19 19:29S 24°13' W 046°15'0 0.0
2015-May-19 18:23S 24°13' W 046°15'0 0.0
2015-May-19 17:29S 24°13' W 046°15'0 0.0
2015-May-19 16:32S 24°13' W 046°15'0 0.1
2015-May-19 15:32S 24°13' W 046°15'0 0.0
2015-May-19 14:23S 24°13' W 046°15'0 0.1
2015-May-19 13:32S 24°13' W 046°15'0 0.0
2015-May-19 12:26S 24°13' W 046°15'0 0.0
2015-May-19 11:32S 24°13' W 046°15'0 0.0
2015-May-19 10:26S 24°13' W 046°15'0 0.0
2015-May-19 09:32S 24°13' W 046°15'0 0.0
2015-May-19 08:32S 24°13' W 046°15'0 0.0
2015-May-19 07:29S 24°13' W 046°15'0 0.0
2015-May-19 06:29S 24°13' W 046°15'0 0.0
2015-May-19 05:29S 24°13' W 046°15'0 0.0
2015-May-19 04:32S 24°13' W 046°15'0 0.0
2015-May-19 03:32S 24°13' W 046°15'0 0.0
2015-May-19 02:32S 24°13' W 046°15'0 0.0
2015-May-19 01:32S 24°13' W 046°15'0 0.0
2015-May-19 00:32S 24°13' W 046°15'0 0.0
2015-May-18 23:32S 24°13' W 046°15'0 0.0
2015-May-18 22:29S 24°13' W 046°15'0 0.0
2015-May-18 21:32S 24°13' W 046°15'0 0.0
2015-May-18 20:29S 24°13' W 046°15'0 0.0
2015-May-18 19:29S 24°13' W 046°15'0 0.0
2015-May-18 18:26S 24°13' W 046°15'0 0.0
2015-May-18 17:17S 24°13' W 046°15'0 0.0
2015-May-18 16:11S 24°13' W 046°15'0 0.0
2015-May-18 15:32S 24°13' W 046°15'0 0.0
2015-May-18 14:26S 24°13' W 046°15'0 0.1
2015-May-18 13:29S 24°13' W 046°15'0 0.1
2015-May-18 12:29S 24°13' W 046°15'0 0.0
2015-May-18 11:32S 24°13' W 046°15'0 0.0
2015-May-18 10:32S 24°13' W 046°15'0 0.0
2015-May-18 09:29S 24°13' W 046°15'0 0.0
2015-May-18 08:23S 24°13' W 046°15'0 0.0
2015-May-18 07:29S 24°13' W 046°15'0 0.0
2015-May-18 06:32S 24°13' W 046°15'0 0.0
2015-May-18 05:32S 24°13' W 046°15'0 0.0
2015-May-18 04:23S 24°13' W 046°15'0 0.0
2015-May-18 03:32S 24°13' W 046°15'0 0.0
2015-May-18 02:29S 24°13' W 046°15'0 0.0
2015-May-18 01:29S 24°13' W 046°15'0 0.0
2015-May-18 00:29S 24°13' W 046°15'0 0.0
2015-May-17 23:32S 24°13' W 046°15'0 0.0
2015-May-17 22:23S 24°13' W 046°15'0 0.0
2015-May-17 21:26S 24°13' W 046°15'0 0.0
2015-May-17 20:26S 24°13' W 046°15'0 0.0
2015-May-17 19:32S 24°13' W 046°15'0 0.0
2015-May-17 18:32S 24°13' W 046°15'0 0.0
2015-May-17 17:32S 24°13' W 046°15'0 0.0
2015-May-17 16:26S 24°13' W 046°15'0 0.0
2015-May-17 15:17S 24°13' W 046°15'0 0.0
2015-May-17 13:26S 24°13' W 046°15'0 0.0
2015-May-17 12:32S 24°13' W 046°15'0 0.2
2015-May-17 11:29S 24°13' W 046°15'0 0.0
2015-May-17 10:32S 24°13' W 046°15'0 0.0
2015-May-17 09:32S 24°13' W 046°15'0 0.0
2015-May-17 08:29S 24°13' W 046°15'0 0.0
2015-May-17 07:17S 24°13' W 046°15'0 0.0
2015-May-17 06:32S 24°13' W 046°15'0 0.0
2015-May-17 05:32S 24°13' W 046°15'0 0.0
2015-May-17 04:23S 24°13' W 046°15'0 0.0
2015-May-17 03:05S 24°13' W 046°15'0 0.0
2015-May-17 02:29S 24°13' W 046°15'0 0.0
2015-May-17 01:29S 24°13' W 046°15'0 0.0
2015-May-17 00:14S 24°13' W 046°15'0 0.0
2015-May-16 23:17S 24°13' W 046°15'0 0.0
2015-May-16 22:23S 24°13' W 046°15'0 0.0
2015-May-16 21:26S 24°13' W 046°15'0 0.0
2015-May-16 20:17S 24°13' W 046°15'0 0.0
2015-May-16 19:32S 24°13' W 046°15'0 0.0
2015-May-16 18:32S 24°13' W 046°15'0 0.0
2015-May-16 17:29S 24°13' W 046°15'0 0.0
2015-May-16 16:29S 24°13' W 046°15'0 0.0
2015-May-16 15:29S 24°13' W 046°15'0 0.0
2015-May-16 14:29S 24°13' W 046°15'0 0.0
2015-May-16 13:26S 24°13' W 046°15'0 0.0
2015-May-16 12:29S 24°13' W 046°15'0 0.0
2015-May-16 11:26S 24°13' W 046°15'0 0.0
2015-May-16 09:29S 24°13' W 046°15'0 0.0
2015-May-16 08:23S 24°13' W 046°15'0 0.0
2015-May-16 07:23S 24°13' W 046°15'0 0.0
2015-May-16 06:15S 24°13' W 046°15'0 0.0
2015-May-16 05:29S 24°13' W 046°15'0 0.0
2015-May-16 04:29S 24°13' W 046°15'0 0.0
2015-May-16 02:05S 24°13' W 046°15'0 0.0
2015-May-16 01:32S 24°13' W 046°15'0 0.0
2015-May-16 00:11S 24°13' W 046°15'0 0.0
2015-May-15 23:29S 24°13' W 046°15'0 0.0
2015-May-15 22:29S 24°13' W 046°15'0 0.0
2015-May-15 21:23S 24°13' W 046°15'0 0.0
2015-May-15 20:14S 24°13' W 046°15'0 0.0
2015-May-15 19:26S 24°13' W 046°15'0 0.0
2015-May-15 18:26S 24°13' W 046°15'  
Track history (hours):
 
Tides and Currents Weather Stations Pressure Air Temp Water Temp Dewpoint Dewpoint Depression Visibility Wind Speed Wind Dir Waves Ship Positions

Lady Maria Luisa

Last reported at 2015-May-25 17:33 UTC. Time now 2015-May-28 22:16 UTC.
Position S 24°21' W 045°25'.

Length 224 m; draft 13.3 m.

Type: Cargo ship. MMSI: 355777000.

Date/timePositionNaut miles runAvg speedWind from/ knotsBaromVisibWave heightAir tempDewpointWater temp
2015-May-25 17:33S 24°21' W 045°25'1211.6
2015-May-25 16:32S 24°19' W 045°38'1111.8
2015-May-25 15:33S 24°17' W 045°50'1211.8
2015-May-25 14:33S 24°14' W 046°03'1211.8
2015-May-25 13:33S 24°12' W 046°15'10 9.6
2015-May-25 12:33S 24°04' W 046°22'7 6.7
2015-May-25 11:34S 23°59' W 046°17'0 0.1
2015-May-25 10:32S 23°59' W 046°17'0 0.0
2015-May-25 09:29S 23°59' W 046°17'0 0.0
2015-May-25 08:29S 23°59' W 046°17'0 0.0
2015-May-25 07:32S 23°59' W 046°17'0 0.0
2015-May-25 06:32S 23°59' W 046°17'0 0.0
2015-May-25 05:29S 23°59' W 046°17'0 0.0
2015-May-25 04:32S 23°59' W 046°17'0 0.0
2015-May-25 03:32S 23°59' W 046°17'0 0.0
2015-May-25 02:32S 23°59' W 046°17'0 0.0
2015-May-25 01:32S 23°59' W 046°17'0 0.0
2015-May-25 00:29S 23°59' W 046°17'0 0.0
2015-May-24 23:32S 23°59' W 046°17'0 0.0
2015-May-24 22:29S 23°59' W 046°17'0 0.0
2015-May-24 21:32S 23°59' W 046°17'0 0.0
2015-May-24 20:26S 23°59' W 046°17'0 0.0
2015-May-24 19:32S 23°59' W 046°17'0 0.0
2015-May-24 18:32S 23°59' W 046°17'0 0.0
2015-May-24 17:32S 23°59' W 046°17'0 0.0
2015-May-24 16:32S 23°59' W 046°17'0 0.0
2015-May-24 15:32S 23°59' W 046°17'0 0.0
2015-May-24 14:32S 23°59' W 046°17'0 0.0
2015-May-24 13:32S 23°59' W 046°17'0 0.0
2015-May-24 12:32S 23°59' W 046°17'0 0.0
2015-May-24 11:29S 23°59' W 046°17'0 0.0
2015-May-24 10:32S 23°59' W 046°17'0 0.0
2015-May-24 09:32S 23°59' W 046°17'0 0.0
2015-May-24 08:26S 23°59' W 046°17'0 0.0
2015-May-24 07:32S 23°59' W 046°17'0 0.0
2015-May-24 06:32S 23°59' W 046°17'0 0.0
2015-May-24 05:32S 23°59' W 046°17'0 0.0
2015-May-24 04:32S 23°59' W 046°17'0 0.0
2015-May-24 03:32S 23°59' W 046°17'0 0.0
2015-May-24 02:20S 23°59' W 046°18'0 0.0
2015-May-24 01:32S 23°59' W 046°17'0 0.0
2015-May-24 00:32S 23°59' W 046°17'0 0.0
2015-May-23 23:32S 23°59' W 046°17'0 0.0
2015-May-23 22:32S 23°59' W 046°17'0 0.0
2015-May-23 21:29S 23°59' W 046°17'0 0.0
2015-May-23 20:32S 23°59' W 046°17'0 0.0
2015-May-23 19:32S 23°59' W 046°17'0 0.0
2015-May-23 18:32S 23°59' W 046°17'0 0.0
2015-May-23 17:32S 23°59' W 046°17'0 0.0
2015-May-23 16:32S 23°59' W 046°17'0 0.0
2015-May-23 15:32S 23°59' W 046°17'0 0.0
2015-May-23 14:29S 23°59' W 046°17'0 0.0
2015-May-23 13:26S 23°59' W 046°17'0 0.0
2015-May-23 12:32S 23°59' W 046°17'0 0.0
2015-May-23 11:32S 23°59' W 046°17'0 0.0
2015-May-23 10:32S 23°59' W 046°17'0 0.0
2015-May-23 09:32S 23°59' W 046°17'0 0.0
2015-May-23 08:29S 23°59' W 046°17'0 0.4
2015-May-23 07:33S 23°59' W 046°18'7 6.8
2015-May-23 06:33S 24°05' W 046°22'6 5.9
2015-May-23 05:33S 24°11' W 046°22'6 6.4
2015-May-23 04:33S 24°13' W 046°15'0 0.1
2015-May-23 02:21S 24°13' W 046°15'0 0.0
2015-May-23 01:27S 24°13' W 046°15'0 0.0
2015-May-23 00:24S 24°13' W 046°15'0 0.0
2015-May-22 23:27S 24°13' W 046°15'0 0.0
2015-May-22 22:33S 24°13' W 046°15'0 0.0
2015-May-22 21:27S 24°13' W 046°15'0 0.0
2015-May-22 20:33S 24°13' W 046°15'0 0.0
2015-May-22 19:30S 24°13' W 046°15'0 0.0
2015-May-22 18:33S 24°13' W 046°15'0 0.0
2015-May-22 17:27S 24°13' W 046°15'0 0.0
2015-May-22 16:33S 24°13' W 046°15'0 0.0
2015-May-22 15:30S 24°13' W 046°15'0 0.1
2015-May-22 14:30S 24°13' W 046°15'0 0.0
2015-May-22 13:30S 24°13' W 046°15'0 0.0
2015-May-22 12:30S 24°13' W 046°15'0 0.0
2015-May-22 11:33S 24°13' W 046°15'0 0.0
2015-May-22 10:33S 24°13' W 046°15'0 0.0
2015-May-22 09:33S 24°13' W 046°15'0 0.0
2015-May-22 08:27S 24°13' W 046°15'0 0.0
2015-May-22 07:33S 24°13' W 046°15'0 0.0
2015-May-22 06:33S 24°13' W 046°15'0 0.0
2015-May-22 05:06S 24°13' W 046°15'0 0.0
2015-May-22 04:21S 24°13' W 046°15'0 0.0
2015-May-22 03:30S 24°13' W 046°15'0 0.0
2015-May-22 02:24S 24°13' W 046°15'0 0.0
2015-May-22 01:27S 24°13' W 046°15'0 0.0
2015-May-21 23:06S 24°13' W 046°15'0 0.1
2015-May-21 22:33S 24°13' W 046°15'0 0.0
2015-May-21 21:24S 24°13' W 046°15'0 0.0
2015-May-21 20:30S 24°13' W 046°15'0 0.0
2015-May-21 19:33S 24°13' W 046°15'0 0.0
2015-May-21 18:24S 24°13' W 046°15'0 0.0
2015-May-21 17:30S 24°13' W 046°15'0 0.0
2015-May-21 16:30S 24°13' W 046°15'0 0.0
2015-May-21 15:33S 24°13' W 046°15'0 0.0
2015-May-21 14:30S 24°13' W 046°15'0 0.0
2015-May-21 13:06S 24°13' W 046°15'0 0.0
2015-May-21 12:17S 24°13' W 046°15'0 0.0
2015-May-21 11:33S 24°13' W 046°15'0 0.0
2015-May-21 10:32S 24°13' W 046°15'0 0.0
2015-May-21 09:29S 24°13' W 046°15'0 0.0
2015-May-21 08:32S 24°13' W 046°15'0 0.0
2015-May-21 07:32S 24°13' W 046°15'0 0.0
2015-May-21 06:29S 24°13' W 046°15'0 0.0
2015-May-21 05:18S 24°13' W 046°15'0 0.0
2015-May-21 04:29S 24°13' W 046°15'0 0.0
2015-May-21 03:29S 24°13' W 046°15'0 0.0
2015-May-21 02:29S 24°13' W 046°15'0 0.0
2015-May-21 01:29S 24°13' W 046°15'0 0.0
2015-May-21 00:32S 24°13' W 046°15'0 0.0
2015-May-20 23:26S 24°13' W 046°15'0 0.0
2015-May-20 22:32S 24°13' W 046°15'0 0.0
2015-May-20 21:29S 24°13' W 046°15'0 0.0
2015-May-20 20:23S 24°13' W 046°15'0 0.0
2015-May-20 19:23S 24°13' W 046°15'0 0.0
2015-May-20 18:20S 24°13' W 046°15'0 0.0
2015-May-20 17:29S 24°13' W 046°15'0 0.0
2015-May-20 16:32S 24°13' W 046°15'0 0.0
2015-May-20 15:29S 24°13' W 046°15'0 0.0
2015-May-20 14:29S 24°13' W 046°15'0 0.0
2015-May-20 13:29S 24°13' W 046°15'0 0.0
2015-May-20 12:32S 24°13' W 046°15'0 0.0
2015-May-20 11:29S 24°13' W 046°15'0 0.0
2015-May-20 10:32S 24°13' W 046°15'0 0.0
2015-May-20 09:29S 24°13' W 046°15'0 0.0
2015-May-20 08:32S 24°13' W 046°15'0 0.0
2015-May-20 07:29S 24°13' W 046°15'0 0.0
2015-May-20 06:32S 24°13' W 046°15'0 0.0
2015-May-20 05:32S 24°13' W 046°15'0 0.0
2015-May-20 04:32S 24°13' W 046°15'0 0.0
2015-May-20 03:32S 24°13' W 046°15'0 0.0
2015-May-20 02:17S 24°13' W 046°15'0 0.0
2015-May-20 01:29S 24°13' W 046°15'0 0.0
2015-May-20 00:29S 24°13' W 046°15'0 0.0
2015-May-19 23:32S 24°13' W 046°15'0 0.0
2015-May-19 22:32S 24°13' W 046°15'0 0.0
2015-May-19 21:32S 24°13' W 046°15'0 0.0
2015-May-19 20:32S 24°13' W 046°15'0 0.0
2015-May-19 19:29S 24°13' W 046°15'0 0.0
2015-May-19 18:23S 24°13' W 046°15'0 0.0
2015-May-19 17:29S 24°13' W 046°15'0 0.0
2015-May-19 16:32S 24°13' W 046°15'0 0.1
2015-May-19 15:32S 24°13' W 046°15'0 0.0
2015-May-19 14:23S 24°13' W 046°15'0 0.1
2015-May-19 13:32S 24°13' W 046°15'0 0.0
2015-May-19 12:26S 24°13' W 046°15'0 0.0
2015-May-19 11:32S 24°13' W 046°15'0 0.0
2015-May-19 10:26S 24°13' W 046°15'0 0.0
2015-May-19 09:32S 24°13' W 046°15'0 0.0
2015-May-19 08:32S 24°13' W 046°15'0 0.0
2015-May-19 07:29S 24°13' W 046°15'0 0.0
2015-May-19 06:29S 24°13' W 046°15'0 0.0
2015-May-19 05:29S 24°13' W 046°15'0 0.0
2015-May-19 04:32S 24°13' W 046°15'0 0.0
2015-May-19 03:32S 24°13' W 046°15'0 0.0
2015-May-19 02:32S 24°13' W 046°15'0 0.0
2015-May-19 01:32S 24°13' W 046°15'0 0.0
2015-May-19 00:32S 24°13' W 046°15'0 0.0
2015-May-18 23:32S 24°13' W 046°15'0 0.0
2015-May-18 22:29S 24°13' W 046°15'0 0.0
2015-May-18 21:32S 24°13' W 046°15'0 0.0
2015-May-18 20:29S 24°13' W 046°15'0 0.0
2015-May-18 19:29S 24°13' W 046°15'0 0.0
2015-May-18 18:26S 24°13' W 046°15'0 0.0
2015-May-18 17:17S 24°13' W 046°15'0 0.0
2015-May-18 16:11S 24°13' W 046°15'0 0.0
2015-May-18 15:32S 24°13' W 046°15'0 0.0
2015-May-18 14:26S 24°13' W 046°15'0 0.1
2015-May-18 13:29S 24°13' W 046°15'0 0.1
2015-May-18 12:29S 24°13' W 046°15'0 0.0
2015-May-18 11:32S 24°13' W 046°15'0 0.0
2015-May-18 10:32S 24°13' W 046°15'0 0.0
2015-May-18 09:29S 24°13' W 046°15'0 0.0
2015-May-18 08:23S 24°13' W 046°15'0 0.0
2015-May-18 07:29S 24°13' W 046°15'0 0.0
2015-May-18 06:32S 24°13' W 046°15'0 0.0
2015-May-18 05:32S 24°13' W 046°15'0 0.0
2015-May-18 04:23S 24°13' W 046°15'0 0.0
2015-May-18 03:32S 24°13' W 046°15'0 0.0
2015-May-18 02:29S 24°13' W 046°15'0 0.0
2015-May-18 01:29S 24°13' W 046°15'0 0.0
2015-May-18 00:29S 24°13' W 046°15'0 0.0
2015-May-17 23:32S 24°13' W 046°15'0 0.0
2015-May-17 22:23S 24°13' W 046°15'0 0.0
2015-May-17 21:26S 24°13' W 046°15'0 0.0
2015-May-17 20:26S 24°13' W 046°15'0 0.0
2015-May-17 19:32S 24°13' W 046°15'0 0.0
2015-May-17 18:32S 24°13' W 046°15'0 0.0
2015-May-17 17:32S 24°13' W 046°15'0 0.0
2015-May-17 16:26S 24°13' W 046°15'0 0.0
2015-May-17 15:17S 24°13' W 046°15'0 0.0
2015-May-17 13:26S 24°13' W 046°15'0 0.0
2015-May-17 12:32S 24°13' W 046°15'0 0.2
2015-May-17 11:29S 24°13' W 046°15'0 0.0
2015-May-17 10:32S 24°13' W 046°15'0 0.0
2015-May-17 09:32S 24°13' W 046°15'0 0.0
2015-May-17 08:29S 24°13' W 046°15'0 0.0
2015-May-17 07:17S 24°13' W 046°15'0 0.0
2015-May-17 06:32S 24°13' W 046°15'0 0.0
2015-May-17 05:32S 24°13' W 046°15'0 0.0
2015-May-17 04:23S 24°13' W 046°15'0 0.0
2015-May-17 03:05S 24°13' W 046°15'0 0.0
2015-May-17 02:29S 24°13' W 046°15'0 0.0
2015-May-17 01:29S 24°13' W 046°15'0 0.0
2015-May-17 00:14S 24°13' W 046°15'0 0.0
2015-May-16 23:17S 24°13' W 046°15'0 0.0
2015-May-16 22:23S 24°13' W 046°15'0 0.0
2015-May-16 21:26S 24°13' W 046°15'0 0.0
2015-May-16 20:17S 24°13' W 046°15'0 0.0
2015-May-16 19:32S 24°13' W 046°15'0 0.0
2015-May-16 18:32S 24°13' W 046°15'0 0.0
2015-May-16 17:29S 24°13' W 046°15'0 0.0
2015-May-16 16:29S 24°13' W 046°15'0 0.0
2015-May-16 15:29S 24°13' W 046°15'0 0.0
2015-May-16 14:29S 24°13' W 046°15'0 0.0
2015-May-16 13:26S 24°13' W 046°15'0 0.0
2015-May-16 12:29S 24°13' W 046°15'0 0.0
2015-May-16 11:26S 24°13' W 046°15'0 0.0
2015-May-16 09:29S 24°13' W 046°15'0 0.0
2015-May-16 08:23S 24°13' W 046°15'0 0.0
2015-May-16 07:23S 24°13' W 046°15'0 0.0
2015-May-16 06:15S 24°13' W 046°15'0 0.0
2015-May-16 05:29S 24°13' W 046°15'0 0.0
2015-May-16 04:29S 24°13' W 046°15'0 0.0
2015-May-16 02:05S 24°13' W 046°15'0 0.0
2015-May-16 01:32S 24°13' W 046°15'0 0.0
2015-May-16 00:11S 24°13' W 046°15'0 0.0
2015-May-15 23:29S 24°13' W 046°15'0 0.0
2015-May-15 22:29S 24°13' W 046°15'0 0.0
2015-May-15 21:23S 24°13' W 046°15'0 0.0
2015-May-15 20:14S 24°13' W 046°15'0 0.0
2015-May-15 19:26S 24°13' W 046°15'0 0.0
2015-May-15 18:26S 24°13' W 046°15'  

Dump ship's entire track history